Time;durP1;ratioP1;P1;durP2;ratioP2;P2;SDS_P1;SDS_P2;PMS_P1;PMS_P2;Temp;Humidity;BMP_temperature;BMP_pressure;BME280_temperature;BME280_humidity;BME280_pressure;Samples;Min_cycle;Max_cycle;Signal;HPM_P1;HPM_P2
2023/07/16 00:01:04;;;;;;;1999.90;999.90;;;22.70;99.90;;;;;;5067699;28;20435;-70
2023/07/16 00:03:32;;;;;;;1999.90;999.90;;;22.50;99.90;;;;;;5067071;28;20876;-70
2023/07/16 00:05:59;;;;;;;1999.90;999.90;;;22.50;99.90;;;;;;5067255;28;20431;-70
2023/07/16 00:08:26;;;;;;;1999.90;999.90;;;22.40;99.90;;;;;;5062265;28;20436;-70
2023/07/16 00:10:52;;;;;;;1999.90;999.90;;;22.40;99.90;;;;;;5065532;28;20423;-70
2023/07/16 00:13:19;;;;;;;1999.90;999.90;;;22.50;99.90;;;;;;5066195;28;20436;-69
2023/07/16 00:15:46;;;;;;;1999.90;999.90;;;22.60;99.90;;;;;;5068998;28;20466;-70
2023/07/16 00:18:12;;;;;;;1999.90;999.90;;;22.60;99.90;;;;;;5067101;28;20824;-70
2023/07/16 00:20:40;;;;;;;1999.90;999.90;;;22.60;99.90;;;;;;5068423;28;20427;-70
2023/07/16 00:23:07;;;;;;;1999.90;999.90;;;22.70;99.90;;;;;;5070962;28;20439;-70
2023/07/16 00:25:35;;;;;;;1999.90;999.90;;;22.70;99.90;;;;;;5071056;28;20436;-69
2023/07/16 00:28:02;;;;;;;1999.90;999.90;;;22.60;99.90;;;;;;5070531;28;20431;-70
2023/07/16 00:30:28;;;;;;;1999.90;999.90;;;22.60;99.90;;;;;;5071140;28;20431;-70
2023/07/16 00:32:55;;;;;;;1999.90;999.90;;;22.70;99.90;;;;;;5071349;28;20427;-70
2023/07/16 00:35:22;;;;;;;1999.90;999.90;;;22.50;99.90;;;;;;5070102;28;20989;-70
2023/07/16 00:37:50;;;;;;;1999.90;999.90;;;22.40;99.90;;;;;;5070931;28;20924;-71
2023/07/16 00:40:16;;;;;;;1999.90;999.90;;;22.40;99.90;;;;;;5069203;28;20431;-70
2023/07/16 00:42:43;;;;;;;1999.90;999.90;;;22.50;99.90;;;;;;5070943;28;20497;-70
2023/07/16 00:45:14;;;;;;;1999.90;999.90;;;22.70;99.90;;;;;;5069006;28;20435;-70
2023/07/16 00:47:41;;;;;;;1999.90;999.90;;;22.70;99.90;;;;;;5069604;28;20431;-69
2023/07/16 00:50:09;;;;;;;1999.90;999.90;;;22.60;99.90;;;;;;5069365;28;20425;-69
2023/07/16 00:52:36;;;;;;;1999.90;999.90;;;22.40;99.90;;;;;;5070075;28;20431;-70
2023/07/16 00:55:06;;;;;;;1999.90;999.90;;;22.40;99.90;;;;;;5069467;28;20435;-68
2023/07/16 00:57:34;;;;;;;1999.90;999.90;;;22.30;99.90;;;;;;5070829;28;20450;-68
2023/07/16 01:00:00;;;;;;;1999.90;999.90;;;22.20;99.90;;;;;;5069845;28;20454;-70
2023/07/16 01:02:27;;;;;;;1999.90;999.90;;;22.10;99.90;;;;;;5070213;28;20491;-71
2023/07/16 01:04:54;;;;;;;1999.90;999.90;;;22.20;99.90;;;;;;5070127;28;20462;-68
2023/07/16 01:07:24;;;;;;;1999.90;999.90;;;22.40;99.90;;;;;;5068953;28;20924;-71
2023/07/16 01:09:52;;;;;;;1999.90;999.90;;;22.50;99.90;;;;;;5069083;28;20905;-70
2023/07/16 01:12:21;;;;;;;1999.90;999.90;;;22.60;99.90;;;;;;5070469;28;20855;-70
2023/07/16 01:14:48;;;;;;;1999.90;999.90;;;22.70;99.90;;;;;;5069745;28;20439;-70
2023/07/16 01:17:15;;;;;;;1999.90;999.90;;;22.70;99.90;;;;;;5070047;28;20847;-71
2023/07/16 01:19:42;;;;;;;1999.90;999.90;;;22.80;99.90;;;;;;5067550;28;20434;-70
2023/07/16 01:22:27;;;;;;;1999.90;999.90;;;22.80;99.90;;;;;;5070412;28;20955;-70
2023/07/16 01:25:12;;;;;;;1999.90;999.90;;;22.90;99.90;;;;;;5069912;28;20439;-70
2023/07/16 01:28:07;;;;;;;1999.90;999.90;;;22.90;99.90;;;;;;5063349;28;20436;-70
2023/07/16 01:30:38;;;;;;;1999.90;999.90;;;22.90;99.90;;;;;;5069901;28;20481;-70
2023/07/16 01:33:06;;;;;;;1999.90;999.90;;;22.80;99.90;;;;;;5070058;28;20515;-68
2023/07/16 01:35:34;;;;;;;1999.90;999.90;;;22.60;99.90;;;;;;5069235;28;20523;-69
2023/07/16 01:38:01;;;;;;;1999.90;999.90;;;22.50;99.90;;;;;;5070005;28;20462;-70
2023/07/16 01:40:28;;;;;;;1999.90;999.90;;;22.50;99.90;;;;;;5066922;28;20427;-69
2023/07/16 01:42:54;;;;;;;1999.90;999.90;;;22.50;99.90;;;;;;5067995;28;20431;-70
2023/07/16 01:45:21;;;;;;;1999.90;999.90;;;22.40;99.90;;;;;;5069544;28;20542;-70
2023/07/16 01:48:00;;;;;;;1999.90;999.90;;;22.40;99.90;;;;;;5068863;28;20435;-69
2023/07/16 01:50:26;;;;;;;1999.90;999.90;;;22.30;99.90;;;;;;5068479;28;20423;-70
2023/07/16 01:52:53;;;;;;;1999.90;999.90;;;22.10;99.90;;;;;;5067895;28;20427;-69
2023/07/16 01:55:20;;;;;;;1999.90;999.90;;;22.10;99.90;;;;;;5069234;28;20432;-70
2023/07/16 01:57:46;;;;;;;1999.90;999.90;;;22.20;99.90;;;;;;5067019;28;20483;-70
2023/07/16 02:00:13;;;;;;;1999.90;999.90;;;22.20;99.90;;;;;;5069890;28;20434;-70
2023/07/16 02:02:40;;;;;;;1999.90;999.90;;;22.00;99.90;;;;;;5068254;28;20439;-70
2023/07/16 02:05:08;;;;;;;1999.90;999.90;;;21.80;99.90;;;;;;5068662;28;20442;-68
2023/07/16 02:07:35;;;;;;;1999.90;999.90;;;21.90;99.90;;;;;;5068705;28;20443;-70
2023/07/16 02:10:03;;;;;;;1999.90;999.90;;;21.90;99.90;;;;;;5066275;28;20435;-70
2023/07/16 02:12:30;;;;;;;1999.90;999.90;;;21.80;99.90;;;;;;5066678;28;20427;-69
2023/07/16 02:14:56;;;;;;;1999.90;999.90;;;22.00;99.90;;;;;;5066880;28;20427;-70
2023/07/16 02:17:23;;;;;;;1999.90;999.90;;;22.10;99.90;;;;;;5067052;28;20439;-70
2023/07/16 02:19:50;;;;;;;1999.90;999.90;;;22.10;99.90;;;;;;5067465;28;20458;-70
2023/07/16 02:22:18;;;;;;;1999.90;999.90;;;22.20;99.90;;;;;;5067267;28;20909;-69
2023/07/16 02:24:45;;;;;;;1999.90;999.90;;;22.10;99.90;;;;;;5066279;28;20432;-71
2023/07/16 02:27:12;;;;;;;1999.90;999.90;;;22.30;99.90;;;;;;5069069;28;20712;-70
2023/07/16 02:29:38;;;;;;;1999.90;999.90;;;22.30;99.90;;;;;;5068966;28;20441;-70
2023/07/16 02:32:06;;;;;;;1999.90;999.90;;;22.30;99.90;;;;;;5068011;28;20473;-70
2023/07/16 02:34:32;;;;;;;1999.90;999.90;;;22.30;99.90;;;;;;5068586;28;20488;-70
2023/07/16 02:36:59;;;;;;;1999.90;999.90;;;22.30;99.90;;;;;;5068107;28;20936;-70
2023/07/16 02:39:27;;;;;;;1999.90;999.90;;;22.30;99.90;;;;;;5067874;28;20432;-70
2023/07/16 02:41:54;;;;;;;1999.90;999.90;;;22.50;99.90;;;;;;5068358;28;20506;-70
2023/07/16 02:44:20;;;;;;;1999.90;999.90;;;22.40;99.90;;;;;;5068204;28;20438;-70
2023/07/16 02:46:47;;;;;;;1999.90;999.90;;;22.30;99.90;;;;;;5068019;28;20435;-68
2023/07/16 02:49:14;;;;;;;1999.90;999.90;;;22.20;99.90;;;;;;5068750;28;20936;-70
2023/07/16 02:51:40;;;;;;;1999.90;999.90;;;22.40;99.90;;;;;;5068624;28;20423;-69
2023/07/16 02:54:07;;;;;;;1999.90;999.90;;;22.40;99.90;;;;;;5065405;28;20428;-69
2023/07/16 02:56:35;;;;;;;1999.90;999.90;;;22.30;99.90;;;;;;5067579;28;20431;-69
2023/07/16 02:59:02;;;;;;;1999.90;999.90;;;22.30;99.90;;;;;;5068005;28;20861;-70
2023/07/16 03:01:29;;;;;;;1999.90;999.90;;;22.50;99.90;;;;;;5068350;28;20423;-70
2023/07/16 03:03:55;;;;;;;1999.90;999.90;;;22.20;99.90;;;;;;5068324;28;21093;-70
2023/07/16 03:06:22;;;;;;;1999.90;999.90;;;22.20;99.90;;;;;;5067738;28;20443;-70
2023/07/16 03:08:49;;;;;;;1999.90;999.90;;;22.30;99.90;;;;;;5067309;28;20431;-70
2023/07/16 03:11:15;;;;;;;1999.90;999.90;;;22.30;99.90;;;;;;5067628;28;20909;-70
2023/07/16 03:13:43;;;;;;;1999.90;999.90;;;22.40;99.90;;;;;;5068348;28;20497;-70
2023/07/16 03:16:10;;;;;;;1999.90;999.90;;;22.40;99.90;;;;;;5066274;28;20435;-70
2023/07/16 03:18:37;;;;;;;1999.90;999.90;;;22.30;99.90;;;;;;5068198;28;20962;-69
2023/07/16 03:21:04;;;;;;;1999.90;999.90;;;22.20;99.90;;;;;;5067655;28;20427;-69
2023/07/16 03:23:31;;;;;;;1999.90;999.90;;;22.20;99.90;;;;;;5067600;28;20916;-71
2023/07/16 03:25:57;;;;;;;1999.90;999.90;;;22.20;99.90;;;;;;5067828;28;20435;-70
2023/07/16 03:28:24;;;;;;;1999.90;999.90;;;22.30;99.90;;;;;;5067514;28;20427;-70
2023/07/16 03:30:53;;;;;;;1999.90;999.90;;;22.30;99.90;;;;;;5067706;28;20893;-70
2023/07/16 03:33:20;;;;;;;1999.90;999.90;;;22.20;99.90;;;;;;5067755;28;21117;-71
2023/07/16 03:35:48;;;;;;;1999.90;999.90;;;22.20;99.90;;;;;;5066656;28;20852;-70
2023/07/16 03:38:15;;;;;;;1999.90;999.90;;;22.00;99.90;;;;;;5060215;28;20465;-69
2023/07/16 03:40:44;;;;;;;1999.90;999.90;;;22.00;99.90;;;;;;5067444;28;20431;-70
2023/07/16 03:43:10;;;;;;;1999.90;999.90;;;22.00;99.90;;;;;;5068485;28;20431;-70
2023/07/16 03:45:37;;;;;;;1999.90;999.90;;;21.90;99.90;;;;;;5067734;28;20439;-70
2023/07/16 03:48:06;;;;;;;1999.90;999.90;;;21.90;99.90;;;;;;5066699;28;20431;-69
2023/07/16 03:50:32;;;;;;;1999.90;999.90;;;21.90;99.90;;;;;;5065338;28;20435;-69
2023/07/16 03:53:00;;;;;;;1999.90;999.90;;;21.80;99.90;;;;;;5071112;28;20484;-68
2023/07/16 03:55:26;;;;;;;1999.90;999.90;;;21.80;99.90;;;;;;5071634;28;20920;-70
2023/07/16 03:57:53;;;;;;;1999.90;999.90;;;21.70;99.90;;;;;;5071018;28;20458;-68
2023/07/16 04:00:20;;;;;;;1999.90;999.90;;;21.70;99.90;;;;;;5059376;28;20427;-70
2023/07/16 04:02:46;;;;;;;1999.90;999.90;;;21.60;99.90;;;;;;5071139;28;20831;-70
2023/07/16 04:05:14;;;;;;;1999.90;999.90;;;21.60;99.90;;;;;;5070517;28;20431;-72
2023/07/16 04:07:41;;;;;;;1999.90;999.90;;;21.30;99.90;;;;;;5071142;28;20432;-72
2023/07/16 04:10:09;;;;;;;1999.90;999.90;;;21.20;99.90;;;;;;5070947;28;20488;-72
2023/07/16 04:12:35;;;;;;;1999.90;999.90;;;21.20;99.90;;;;;;5067417;28;20800;-72
2023/07/16 04:15:07;;;;;;;1999.90;999.90;;;21.20;99.90;;;;;;5071308;28;20519;-70
2023/07/16 04:17:34;;;;;;;1999.90;999.90;;;21.20;99.90;;;;;;5070847;28;20432;-69
2023/07/16 04:20:00;;;;;;;1999.90;999.90;;;21.30;99.90;;;;;;5069061;28;20431;-68
2023/07/16 04:22:28;;;;;;;1999.90;999.90;;;21.30;99.90;;;;;;5068761;28;20827;-70
2023/07/16 04:24:55;;;;;;;1999.90;999.90;;;21.20;99.90;;;;;;5069428;28;20438;-72
2023/07/16 04:27:22;;;;;;;1999.90;999.90;;;21.30;99.90;;;;;;5071194;28;20919;-67
2023/07/16 04:29:48;;;;;;;1999.90;999.90;;;21.40;99.90;;;;;;5070248;28;20814;-72
2023/07/16 04:32:15;;;;;;;1999.90;999.90;;;21.40;99.90;;;;;;5071525;28;20450;-69
2023/07/16 04:34:42;;;;;;;1999.90;999.90;;;21.50;99.90;;;;;;5070380;28;20431;-70
2023/07/16 04:37:09;;;;;;;1999.90;999.90;;;21.70;99.90;;;;;;5070708;28;20493;-70
2023/07/16 04:39:37;;;;;;;1999.90;999.90;;;22.00;99.90;;;;;;5071419;28;20431;-68
2023/07/16 04:42:04;;;;;;;1999.90;999.90;;;22.60;99.90;;;;;;5070704;28;20895;-69
2023/07/16 04:44:30;;;;;;;1999.90;999.90;;;23.00;99.90;;;;;;5071252;28;20439;-70
2023/07/16 04:46:57;;;;;;;1999.90;999.90;;;22.80;99.90;;;;;;5070199;28;20431;-69
2023/07/16 04:49:24;;;;;;;1999.90;999.90;;;22.90;99.90;;;;;;5070586;28;20435;-70
2023/07/16 04:51:51;;;;;;;1999.90;999.90;;;23.00;99.90;;;;;;5069687;28;20424;-69
2023/07/16 04:54:17;;;;;;;1999.90;999.90;;;23.10;99.90;;;;;;5070012;28;21084;-70
2023/07/16 04:56:45;;;;;;;1999.90;999.90;;;23.20;99.90;;;;;;5070188;28;20851;-69
2023/07/16 04:59:12;;;;;;;1999.90;999.90;;;23.50;99.90;;;;;;5070749;28;20435;-70
2023/07/16 05:01:39;;;;;;;1999.90;999.90;;;23.70;99.90;;;;;;5067682;28;20475;-69
2023/07/16 05:04:07;;;;;;;1999.90;999.90;;;23.50;99.90;;;;;;5070339;28;20435;-69
2023/07/16 05:06:34;;;;;;;1999.90;999.90;;;23.10;99.90;;;;;;5069590;28;20443;-69
2023/07/16 05:09:01;;;;;;;1999.90;999.90;;;23.00;99.90;;;;;;5098255;22;20425;-73
2023/07/16 05:11:27;;;;;;;1999.90;999.90;;;23.10;99.90;;;;;;5097779;28;20426;-70
2023/07/16 05:13:56;;;;;;;1999.90;999.90;;;23.00;99.90;;;;;;5096910;28;20432;-73
2023/07/16 05:16:23;;;;;;;1999.90;999.90;;;22.80;99.90;;;;;;5085714;28;20435;-74
2023/07/16 05:18:50;;;;;;;1999.90;999.90;;;22.80;99.90;;;;;;5088073;28;20426;-73
2023/07/16 05:21:16;;;;;;;1999.90;999.90;;;23.10;99.90;;;;;;5105939;28;20434;-73
2023/07/16 05:23:43;;;;;;;1999.90;999.90;;;23.20;99.90;;;;;;5103918;28;20428;-75
2023/07/16 05:26:10;;;;;;;1999.90;999.90;;;23.60;99.90;;;;;;5096617;28;20422;-71
2023/07/16 05:28:37;;;;;;;1999.90;999.90;;;24.00;99.90;;;;;;5087839;28;21017;-73
2023/07/16 05:31:05;;;;;;;1999.90;999.90;;;23.90;99.90;;;;;;5099433;28;20474;-74
2023/07/16 05:33:31;;;;;;;1999.90;999.90;;;24.10;99.90;;;;;;5107707;28;20905;-72
2023/07/16 05:35:58;;;;;;;1999.90;999.90;;;23.60;99.90;;;;;;5101924;28;21159;-74
2023/07/16 05:38:25;;;;;;;1999.90;999.90;;;23.60;99.90;;;;;;5092782;28;20429;-74
2023/07/16 05:40:51;;;;;;;1999.90;999.90;;;23.10;99.90;;;;;;5093612;28;20435;-70
2023/07/16 05:43:18;;;;;;;1999.90;999.90;;;22.90;99.90;;;;;;5090585;28;20430;-74
2023/07/16 05:45:45;;;;;;;1999.90;999.90;;;22.50;99.90;;;;;;5104524;28;20488;-74
2023/07/16 05:48:13;;;;;;;1999.90;999.90;;;22.60;99.90;;;;;;5102695;28;20438;-71
2023/07/16 05:50:40;;;;;;;1999.90;999.90;;;23.10;99.90;;;;;;5097154;28;20431;-74
2023/07/16 05:53:06;;;;;;;1999.90;999.90;;;23.30;99.90;;;;;;5090739;28;20803;-74
2023/07/16 05:55:33;;;;;;;1999.90;999.90;;;23.30;99.90;;;;;;5090583;28;20447;-73
2023/07/16 05:58:00;;;;;;;1999.90;999.90;;;23.40;99.90;;;;;;5098941;28;20537;-74
2023/07/16 06:00:26;;;;;;;1999.90;999.90;;;23.50;99.90;;;;;;5103194;28;20452;-74
2023/07/16 06:02:53;;;;;;;1999.90;999.90;;;23.40;99.90;;;;;;5099782;28;20431;-75
2023/07/16 06:05:21;;;;;;;1999.90;999.90;;;23.50;99.90;;;;;;5096998;28;20429;-74
2023/07/16 06:07:48;;;;;;;1999.90;999.90;;;23.40;99.90;;;;;;5091186;28;20945;-73
2023/07/16 06:10:15;;;;;;;1999.90;999.90;;;23.40;99.90;;;;;;5091227;28;20439;-74
2023/07/16 06:12:41;;;;;;;1999.90;999.90;;;23.20;99.90;;;;;;5106471;28;20420;-74
2023/07/16 06:15:09;;;;;;;1999.90;999.90;;;23.00;99.90;;;;;;5086466;28;20936;-73
2023/07/16 06:17:35;;;;;;;1999.90;999.90;;;22.80;99.90;;;;;;5094955;28;20427;-74
2023/07/16 06:20:03;;;;;;;1999.90;999.90;;;22.60;99.90;;;;;;5093488;28;20935;-73
2023/07/16 06:22:31;;;;;;;1999.90;999.90;;;22.90;99.90;;;;;;5087487;28;20833;-73
2023/07/16 06:24:57;;;;;;;1999.90;999.90;;;23.30;99.90;;;;;;5096241;28;20435;-70
2023/07/16 06:27:24;;;;;;;1999.90;999.90;;;23.50;99.90;;;;;;5090675;28;20409;-73
2023/07/16 06:29:51;;;;;;;1999.90;999.90;;;23.70;99.90;;;;;;5090767;28;20421;-72
2023/07/16 06:32:18;;;;;;;1999.90;999.90;;;23.20;99.90;;;;;;5091228;28;20911;-72
2023/07/16 06:34:44;;;;;;;1999.90;999.90;;;23.30;99.90;;;;;;5091257;28;20467;-72
2023/07/16 06:37:11;;;;;;;1999.90;999.90;;;23.50;99.90;;;;;;5087467;28;20433;-75
2023/07/16 06:39:39;;;;;;;1999.90;999.90;;;23.20;99.90;;;;;;5095059;28;20432;-73
2023/07/16 06:42:06;;;;;;;1999.90;999.90;;;23.30;99.90;;;;;;5100156;28;20430;-75
2023/07/16 06:44:33;;;;;;;1999.90;999.90;;;23.40;99.90;;;;;;5100625;28;20434;-72
2023/07/16 06:47:00;;;;;;;1999.90;999.90;;;23.60;99.90;;;;;;5090578;28;20466;-75
2023/07/16 06:49:26;;;;;;;1999.90;999.90;;;23.60;99.90;;;;;;5089760;28;20463;-73
2023/07/16 06:51:53;;;;;;;1999.90;999.90;;;23.90;99.90;;;;;;5089349;28;20471;-71
2023/07/16 06:54:20;;;;;;;1999.90;999.90;;;24.00;99.90;;;;;;5100940;28;20805;-73
2023/07/16 06:56:48;;;;;;;1999.90;999.90;;;24.40;99.90;;;;;;5102257;28;20471;-75
2023/07/16 06:59:14;;;;;;;1999.90;999.90;;;24.60;99.90;;;;;;5099420;28;20450;-76
2023/07/16 07:01:41;;;;;;;1999.90;999.90;;;24.60;99.90;;;;;;5093446;28;20417;-73
2023/07/16 07:04:08;;;;;;;1999.90;999.90;;;24.50;99.90;;;;;;5095050;28;20430;-72
2023/07/16 07:06:34;;;;;;;1999.90;999.90;;;24.50;99.90;;;;;;5091472;28;20432;-73
2023/07/16 07:09:01;;;;;;;1999.90;999.90;;;24.60;99.50;;;;;;5102161;28;20432;-73
2023/07/16 07:11:28;;;;;;;1999.90;999.90;;;24.60;99.90;;;;;;5097786;28;20433;-72
2023/07/16 07:13:57;;;;;;;1999.90;999.90;;;24.40;99.90;;;;;;5095982;28;20432;-73
2023/07/16 07:16:23;;;;;;;1999.90;999.90;;;24.20;99.90;;;;;;5092406;28;20428;-74
2023/07/16 07:18:50;;;;;;;1999.90;999.90;;;24.00;99.90;;;;;;5089310;28;20434;-72
2023/07/16 07:21:17;;;;;;;1999.90;999.90;;;24.10;99.90;;;;;;5100607;28;20974;-73
2023/07/16 07:23:44;;;;;;;1999.90;999.90;;;24.30;99.30;;;;;;5088509;28;20425;-72
2023/07/16 07:26:10;;;;;;;1999.90;999.90;;;24.70;99.30;;;;;;5085777;28;20865;-74
2023/07/16 07:28:37;;;;;;;1999.90;999.90;;;24.60;99.00;;;;;;5093560;28;20429;-73
2023/07/16 07:31:05;;;;;;;1999.90;999.90;;;24.10;99.40;;;;;;5093548;28;20853;-72
2023/07/16 07:33:32;;;;;;;1999.90;999.90;;;23.80;98.60;;;;;;5098130;28;20477;-72
2023/07/16 07:35:59;;;;;;;1999.90;999.90;;;24.00;97.80;;;;;;5092659;28;20489;-75
2023/07/16 07:38:26;;;;;;;1999.90;999.90;;;24.00;98.00;;;;;;5089534;28;20441;-73
2023/07/16 07:40:52;;;;;;;1999.90;999.90;;;24.20;97.60;;;;;;5096308;28;20425;-73
2023/07/16 07:43:19;;;;;;;1999.90;999.90;;;24.50;97.70;;;;;;5088412;28;20429;-74
2023/07/16 07:45:46;;;;;;;1999.90;999.90;;;24.40;96.60;;;;;;5092323;28;20428;-72
2023/07/16 07:48:14;;;;;;;1999.90;999.90;;;24.00;96.90;;;;;;5092744;28;20907;-72
2023/07/16 07:50:40;;;;;;;1999.90;999.90;;;24.10;97.00;;;;;;5092964;28;20436;-73
2023/07/16 07:53:07;;;;;;;1999.90;999.90;;;24.00;96.90;;;;;;5092559;28;20430;-73
2023/07/16 07:55:35;;;;;;;1999.90;999.90;;;24.40;96.80;;;;;;5094190;28;20429;-72
2023/07/16 07:58:01;;;;;;;1999.90;999.90;;;24.70;96.20;;;;;;5092250;28;20468;-73
2023/07/16 08:00:28;;;;;;;1999.90;999.90;;;24.90;96.30;;;;;;5094997;28;20434;-73
2023/07/16 08:02:55;;;;;;;1999.90;999.90;;;24.60;96.00;;;;;;5082253;28;20418;-71
2023/07/16 08:05:23;;;;;;;1999.90;999.90;;;24.60;96.40;;;;;;5092234;28;20433;-73
2023/07/16 08:07:50;;;;;;;1999.90;999.90;;;24.90;96.20;;;;;;5088781;28;20435;-73
2023/07/16 08:10:17;;;;;;;1999.90;999.90;;;24.60;96.90;;;;;;5092359;28;20868;-73
2023/07/16 08:12:44;;;;;;;1999.90;999.90;;;24.30;95.50;;;;;;5092174;28;20483;-73
2023/07/16 08:15:14;;;;;;;1999.90;999.90;;;24.30;96.00;;;;;;5081289;28;20430;-72
2023/07/16 08:17:40;;;;;;;1999.90;999.90;;;23.80;95.70;;;;;;5088902;28;20429;-78
2023/07/16 08:20:08;;;;;;;1999.90;999.90;;;23.90;95.90;;;;;;5092817;28;20445;-74
2023/07/16 08:22:37;;;;;;;1999.90;999.90;;;24.40;95.60;;;;;;5090009;28;20448;-73
2023/07/16 08:25:04;;;;;;;1999.90;999.90;;;24.00;95.90;;;;;;5088778;28;20859;-73
2023/07/16 08:27:31;;;;;;;1999.90;999.90;;;24.20;95.30;;;;;;5087133;28;20453;-72
2023/07/16 08:29:57;;;;;;;1999.90;999.90;;;24.30;95.10;;;;;;5083908;28;20438;-71
2023/07/16 08:32:24;;;;;;;1999.90;999.90;;;24.20;95.70;;;;;;5082649;28;20822;-72
2023/07/16 08:34:51;;;;;;;1999.90;999.90;;;24.70;94.70;;;;;;5092164;28;21118;-73
2023/07/16 08:37:17;;;;;;;1999.90;999.90;;;24.60;94.50;;;;;;5089148;28;21044;-71
2023/07/16 08:39:45;;;;;;;1999.90;999.90;;;24.20;95.20;;;;;;5092465;28;20437;-74
2023/07/16 08:42:13;;;;;;;1999.90;999.90;;;24.40;95.20;;;;;;5081504;28;20432;-74
2023/07/16 08:44:40;;;;;;;1999.90;999.90;;;24.70;94.80;;;;;;5085405;28;20452;-72
2023/07/16 08:47:07;;;;;;;1999.90;999.90;;;24.60;93.30;;;;;;5094084;28;20801;-73
2023/07/16 08:49:35;;;;;;;1999.90;999.90;;;24.30;93.50;;;;;;5092762;28;20434;-73
2023/07/16 08:52:03;;;;;;;1999.90;999.90;;;24.70;94.40;;;;;;5091506;28;20794;-70
2023/07/16 08:54:30;;;;;;;1999.90;999.90;;;24.70;93.90;;;;;;5097461;28;20445;-71
2023/07/16 08:56:58;;;;;;;1999.90;999.90;;;24.60;94.20;;;;;;5082805;28;20434;-72
2023/07/16 08:59:27;;;;;;;1999.90;999.90;;;24.70;92.30;;;;;;5090927;28;20433;-72
2023/07/16 09:01:54;;;;;;;1999.90;999.90;;;25.00;93.30;;;;;;5083767;28;20434;-71
2023/07/16 09:04:20;;;;;;;1999.90;999.90;;;25.20;92.30;;;;;;5092180;28;20429;-71
2023/07/16 09:06:47;;;;;;;1999.90;999.90;;;25.40;92.30;;;;;;5090722;28;20441;-71
2023/07/16 09:09:21;;;;;;;1999.90;999.90;;;25.30;92.20;;;;;;5091462;28;20434;-72
2023/07/16 09:11:48;;;;;;;1999.90;999.90;;;24.90;91.60;;;;;;5095468;28;20557;-71
2023/07/16 09:14:18;;;;;;;1999.90;999.90;;;24.90;92.30;;;;;;5087310;28;20421;-73
2023/07/16 09:16:48;;;;;;;1999.90;999.90;;;25.30;92.90;;;;;;5088830;28;20465;-73
2023/07/16 09:19:18;;;;;;;1999.90;999.90;;;25.70;92.00;;;;;;5082558;28;20483;-72
2023/07/16 09:21:47;;;;;;;1999.90;999.90;;;25.40;91.80;;;;;;5096459;28;20508;-71
2023/07/16 09:24:13;;;;;;;1999.90;999.90;;;25.60;91.70;;;;;;5087204;28;20499;-72
2023/07/16 09:26:48;;;;;;;1999.90;999.90;;;25.70;91.10;;;;;;5087390;28;20425;-72
2023/07/16 09:29:14;;;;;;;1999.90;999.90;;;25.80;91.20;;;;;;5085730;28;20791;-70
2023/07/16 09:31:56;;;;;;;1999.90;999.90;;;26.10;91.30;;;;;;5091066;28;20429;-71
2023/07/16 09:34:23;;;;;;;1999.90;999.90;;;25.90;90.40;;;;;;5082233;28;20433;-72
2023/07/16 09:36:50;;;;;;;1999.90;999.90;;;26.10;89.80;;;;;;5085952;28;20437;-72
2023/07/16 09:39:19;;;;;;;1999.90;999.90;;;26.30;90.00;;;;;;5090534;28;20950;-72
2023/07/16 09:41:46;;;;;;;1999.90;999.90;;;26.60;89.60;;;;;;5091026;28;20426;-70
2023/07/16 09:44:14;;;;;;;1999.90;999.90;;;26.60;89.20;;;;;;5095839;28;20446;-72
2023/07/16 09:46:40;;;;;;;1999.90;999.90;;;26.50;90.00;;;;;;5100356;28;20450;-73
2023/07/16 09:49:09;;;;;;;1999.90;999.90;;;26.60;90.50;;;;;;5089041;28;20434;-73
2023/07/16 09:51:37;;;;;;;1999.90;999.90;;;26.60;89.80;;;;;;5087366;28;20418;-72
2023/07/16 09:54:04;;;;;;;1999.90;999.90;;;26.70;90.30;;;;;;5092870;28;20425;-73
2023/07/16 09:56:35;;;;;;;1999.90;999.90;;;26.70;88.50;;;;;;5095021;28;20463;-74
2023/07/16 09:59:03;;;;;;;1999.90;999.90;;;26.90;87.60;;;;;;5087363;28;20436;-72
2023/07/16 10:01:30;;;;;;;1999.90;999.90;;;27.00;85.20;;;;;;5082822;28;20433;-73
2023/07/16 10:03:57;;;;;;;1999.90;999.90;;;26.80;85.80;;;;;;5080944;28;20427;-74
2023/07/16 10:06:25;;;;;;;1999.90;999.90;;;26.70;85.40;;;;;;5078264;28;20440;-73
2023/07/16 10:08:52;;;;;;;1999.90;999.90;;;26.10;85.20;;;;;;5081212;28;20425;-72
2023/07/16 10:11:19;;;;;;;1999.90;999.90;;;25.90;88.10;;;;;;5092870;28;20487;-72
2023/07/16 10:13:50;;;;;;;1999.90;999.90;;;25.70;88.40;;;;;;5089989;28;20433;-72
2023/07/16 10:16:22;;;;;;;1999.90;999.90;;;25.70;88.70;;;;;;5076572;28;20515;-74
2023/07/16 10:18:53;;;;;;;1999.90;999.90;;;25.80;87.70;;;;;;5087617;28;20413;-73
2023/07/16 10:21:25;;;;;;;1999.90;999.90;;;26.30;87.80;;;;;;5091079;28;20414;-73
2023/07/16 10:23:59;;;;;;;1999.90;999.90;;;26.30;87.30;;;;;;5088950;28;20799;-71
2023/07/16 10:26:29;;;;;;;1999.90;999.90;;;26.70;84.80;;;;;;5093541;28;20523;-72
2023/07/16 10:28:56;;;;;;;1999.90;999.90;;;25.90;83.70;;;;;;5095917;28;20464;-72
2023/07/16 10:31:25;;;;;;;1999.90;999.90;;;25.70;82.60;;;;;;5097222;28;20433;-74
2023/07/16 10:34:02;;;;;;;1999.90;999.90;;;26.00;83.60;;;;;;5096514;28;20481;-72
2023/07/16 10:36:30;;;;;;;1999.90;999.90;;;25.90;83.00;;;;;;5088957;28;20934;-73
2023/07/16 10:39:03;;;;;;;1999.90;999.90;;;26.30;84.00;;;;;;5078411;28;20427;-71
2023/07/16 10:41:31;;;;;;;1999.90;999.90;;;26.40;85.30;;;;;;5089053;28;20451;-72
2023/07/16 10:43:58;;;;;;;1999.90;999.90;;;26.40;84.70;;;;;;5093849;28;20415;-73
2023/07/16 10:46:25;;;;;;;1999.90;999.90;;;26.30;83.80;;;;;;5091892;28;20888;-69
2023/07/16 10:48:51;;;;;;;1999.90;999.90;;;26.60;85.50;;;;;;5090181;28;20424;-72
2023/07/16 10:51:18;;;;;;;1999.90;999.90;;;26.70;81.60;;;;;;5090423;28;20409;-72
2023/07/16 10:53:46;;;;;;;1999.90;999.90;;;26.70;79.20;;;;;;5088504;28;20425;-73
2023/07/16 10:56:13;;;;;;;1999.90;999.90;;;26.60;81.10;;;;;;5090472;28;20417;-73
2023/07/16 10:58:40;;;;;;;1999.90;999.90;;;26.30;82.30;;;;;;5085219;28;20426;-73
2023/07/16 11:01:09;;;;;;;1999.90;999.90;;;26.00;84.00;;;;;;5092484;28;20437;-69
2023/07/16 11:03:36;;;;;;;1999.90;999.90;;;25.70;84.70;;;;;;5092151;28;20477;-73
2023/07/16 11:06:07;;;;;;;1999.90;999.90;;;25.90;86.20;;;;;;5088287;28;20473;-72
2023/07/16 11:08:33;;;;;;;1999.90;999.90;;;26.00;86.40;;;;;;5090802;28;20432;-70
2023/07/16 11:11:01;;;;;;;1999.90;999.90;;;26.30;85.10;;;;;;5087875;28;20426;-73
2023/07/16 11:13:29;;;;;;;1999.90;999.90;;;26.30;84.60;;;;;;5089934;28;20426;-69
2023/07/16 11:15:56;;;;;;;1999.90;999.90;;;26.20;84.00;;;;;;5093166;28;20490;-71
2023/07/16 11:18:24;;;;;;;1999.90;999.90;;;26.40;83.90;;;;;;5097302;28;20464;-71
2023/07/16 11:20:52;;;;;;;1999.90;999.90;;;26.30;82.40;;;;;;5097261;28;20462;-71
2023/07/16 11:23:18;;;;;;;1999.90;999.90;;;26.80;82.60;;;;;;5092542;28;20505;-72
2023/07/16 11:25:47;;;;;;;1999.90;999.90;;;26.70;81.70;;;;;;5090979;28;21338;-72
2023/07/16 11:28:15;;;;;;;1999.90;999.90;;;26.40;85.80;;;;;;5089226;28;20433;-72
2023/07/16 11:30:42;;;;;;;1999.90;999.90;;;26.30;83.90;;;;;;5096852;28;20484;-72
2023/07/16 11:33:11;;;;;;;1999.90;999.90;;;26.70;84.00;;;;;;5099938;28;20421;-69
2023/07/16 11:35:38;;;;;;;1999.90;999.90;;;26.90;83.40;;;;;;5095877;28;20982;-72
2023/07/16 11:38:05;;;;;;;1999.90;999.90;;;27.20;82.20;;;;;;5089053;28;20429;-71
2023/07/16 11:40:35;;;;;;;1999.90;999.90;;;26.80;81.10;;;;;;5088386;28;20520;-71
2023/07/16 11:43:09;;;;;;;1999.90;999.90;;;27.00;83.00;;;;;;5089575;28;20776;-70
2023/07/16 11:45:37;;;;;;;1999.90;999.90;;;27.20;82.20;;;;;;5089921;28;20485;-72
2023/07/16 11:48:04;;;;;;;1999.90;999.90;;;26.80;81.80;;;;;;5085869;28;20441;-72
2023/07/16 11:50:31;;;;;;;1999.90;999.90;;;27.00;83.80;;;;;;5086898;28;20487;-72
2023/07/16 11:53:01;;;;;;;1999.90;999.90;;;27.10;82.60;;;;;;5088739;28;20429;-71
2023/07/16 11:55:28;;;;;;;1999.90;999.90;;;27.40;84.00;;;;;;5089799;28;20787;-72
2023/07/16 11:57:56;;;;;;;1999.90;999.90;;;27.70;82.30;;;;;;5086391;28;20517;-70
2023/07/16 12:00:23;;;;;;;1999.90;999.90;;;27.50;81.10;;;;;;5097538;28;20432;-72